createdAt,value
2024-03-28T00:00:36.850Z,1.80
2024-03-28T00:03:29.089Z,1.60
2024-03-28T00:06:01.767Z,1.40
2024-03-28T00:08:34.850Z,1.40
2024-03-28T00:11:07.256Z,1.30
2024-03-28T00:13:38.926Z,1.70
2024-03-28T00:16:10.967Z,1.80
2024-03-28T00:18:42.499Z,1.20
2024-03-28T00:21:14.146Z,0.90
2024-03-28T00:23:46.899Z,1.30
2024-03-28T00:26:19.151Z,2.10
2024-03-28T00:28:50.668Z,1.50
2024-03-28T00:31:22.500Z,1.10
2024-03-28T00:33:54.003Z,1.10
2024-03-28T00:36:25.845Z,0.90
2024-03-28T00:38:57.721Z,2.40
2024-03-28T00:41:29.671Z,1.40
2024-03-28T00:44:01.140Z,1.90
2024-03-28T00:46:32.796Z,1.80
2024-03-28T00:49:04.413Z,1.60
2024-03-28T00:51:35.931Z,2.70
2024-03-28T00:54:07.727Z,1.50
2024-03-28T00:56:39.228Z,0.90
2024-03-28T00:59:10.821Z,0.70
2024-03-28T01:01:42.405Z,0.90
2024-03-28T01:04:16.250Z,0.80
2024-03-28T01:06:48.018Z,1.40
2024-03-28T01:09:19.725Z,0.90
2024-03-28T01:11:51.210Z,1.00
2024-03-28T01:14:22.879Z,0.90
2024-03-28T01:16:54.404Z,0.60
2024-03-28T01:19:26.240Z,1.40
2024-03-28T01:21:57.977Z,0.90
2024-03-28T01:24:31.195Z,1.30
2024-03-28T01:27:02.785Z,0.50
2024-03-28T01:29:34.378Z,0.80
2024-03-28T01:32:06.332Z,2.00
2024-03-28T01:34:37.990Z,1.20
2024-03-28T01:37:11.686Z,0.50
2024-03-28T01:39:44.991Z,1.10
2024-03-28T01:42:17.102Z,0.90
2024-03-28T01:44:48.985Z,0.90
2024-03-28T01:47:36.333Z,1.50
2024-03-28T01:50:13.659Z,0.80
2024-03-28T01:52:45.285Z,0.50
2024-03-28T01:55:17.244Z,0.90
2024-03-28T01:57:51.005Z,0.60
2024-03-28T02:00:23.092Z,0.50
2024-03-28T02:02:54.912Z,0.70
2024-03-28T02:05:26.442Z,0.70
2024-03-28T02:07:58.190Z,0.60
2024-03-28T02:10:31.255Z,0.80
2024-03-28T02:13:04.605Z,1.10
2024-03-28T02:15:36.464Z,0.50
2024-03-28T02:18:08.754Z,0.70
2024-03-28T02:20:40.168Z,0.80
2024-03-28T02:23:13.163Z,0.80
2024-03-28T02:25:48.385Z,0.60
2024-03-28T02:28:20.093Z,0.90
2024-03-28T02:34:15.048Z,0.90
2024-03-28T02:36:53.266Z,0.40
2024-03-28T02:39:33.808Z,0.50
2024-03-28T02:42:30.390Z,0.70
2024-03-28T02:45:16.282Z,1.00
2024-03-28T02:47:55.820Z,0.70
2024-03-28T02:50:43.450Z,0.70
2024-03-28T02:53:29.224Z,1.00
2024-03-28T02:56:10.919Z,1.20
2024-03-28T02:58:48.361Z,1.10
2024-03-28T03:01:48.998Z,0.90
2024-03-28T03:04:22.577Z,0.90
2024-03-28T03:07:12.147Z,0.70
2024-03-28T03:10:01.123Z,0.80
2024-03-28T03:12:40.512Z,1.00
2024-03-28T03:15:29.311Z,0.80
2024-03-28T03:18:10.013Z,0.70
2024-03-28T03:20:52.193Z,1.00
2024-03-28T03:23:30.148Z,1.20
2024-03-28T03:26:15.845Z,1.00
2024-03-28T03:29:06.935Z,1.20
2024-03-28T03:32:00.473Z,0.90
2024-03-28T03:34:55.329Z,0.70
2024-03-28T03:37:39.598Z,1.00
2024-03-28T03:40:23.096Z,2.20
2024-03-28T03:43:05.125Z,1.30
2024-03-28T03:45:51.346Z,1.40
2024-03-28T03:48:48.324Z,1.60
2024-03-28T03:51:26.881Z,1.80
2024-03-28T03:54:17.981Z,0.70
2024-03-28T03:56:58.334Z,1.00
2024-03-28T03:59:39.679Z,0.70
2024-03-28T04:02:20.997Z,0.40
2024-03-28T04:05:07.063Z,1.30
2024-03-28T04:07:50.559Z,0.80
2024-03-28T04:10:34.873Z,1.20
2024-03-28T04:13:17.330Z,1.30
2024-03-28T04:15:53.592Z,1.00
2024-03-28T04:18:30.927Z,1.30
2024-03-28T04:21:13.687Z,0.70
2024-03-28T04:23:52.309Z,0.60
2024-03-28T04:26:39.571Z,1.20
2024-03-28T04:29:24.983Z,0.90
2024-03-28T04:32:02.321Z,1.20
2024-03-28T04:34:39.839Z,0.70
2024-03-28T04:37:15.066Z,0.80
2024-03-28T04:39:54.465Z,1.10
2024-03-28T04:42:37.788Z,0.70
2024-03-28T04:45:25.636Z,0.80
2024-03-28T04:48:04.107Z,0.40
2024-03-28T04:50:42.390Z,0.80
2024-03-28T04:53:17.195Z,0.90
2024-03-28T04:55:52.375Z,1.20
2024-03-28T04:58:33.654Z,0.50
2024-03-28T05:01:14.316Z,0.80
2024-03-28T05:03:56.245Z,0.80
2024-03-28T05:06:39.719Z,0.60
2024-03-28T05:09:17.419Z,0.60
2024-03-28T05:11:51.558Z,0.50
2024-03-28T05:14:23.302Z,1.00
2024-03-28T05:16:55.294Z,1.00
2024-03-28T05:19:26.857Z,1.10
2024-03-28T05:21:58.634Z,0.60
2024-03-28T05:24:32.713Z,0.70
2024-03-28T05:27:08.950Z,0.90
2024-03-28T05:29:49.505Z,0.70
2024-03-28T05:32:27.264Z,0.90
2024-03-28T05:35:07.798Z,1.40
2024-03-28T05:37:40.830Z,1.00
2024-03-28T05:40:16.327Z,0.50
2024-03-28T05:42:54.053Z,0.90
2024-03-28T05:45:29.956Z,0.80
2024-03-28T05:48:03.873Z,1.20
2024-03-28T05:50:38.932Z,1.10
2024-03-28T05:53:15.844Z,1.30
2024-03-28T05:56:02.620Z,1.00
2024-03-28T05:58:37.702Z,0.90
2024-03-28T06:01:12.575Z,0.70
2024-03-28T06:03:47.223Z,0.80
2024-03-28T06:06:21.698Z,1.40
2024-03-28T06:09:03.141Z,0.70
2024-03-28T06:11:47.040Z,1.00
2024-03-28T06:14:21.791Z,0.70
2024-03-28T06:17:02.217Z,0.60
2024-03-28T06:19:38.780Z,0.60
2024-03-28T06:22:12.547Z,0.90
2024-03-28T06:24:47.104Z,1.20
2024-03-28T06:27:29.776Z,1.90
2024-03-28T06:30:05.569Z,0.80
2024-03-28T06:32:43.782Z,1.20
2024-03-28T06:35:23.142Z,1.60
2024-03-28T06:38:07.870Z,0.80
2024-03-28T06:40:42.468Z,0.80
2024-03-28T06:43:20.147Z,1.20
2024-03-28T06:45:56.847Z,0.90
2024-03-28T06:48:39.746Z,0.80
2024-03-28T06:51:18.786Z,1.40
2024-03-28T06:53:55.784Z,1.30
2024-03-28T06:56:30.439Z,0.40
2024-03-28T06:59:03.437Z,1.10
2024-03-28T07:01:47.868Z,0.70
2024-03-28T07:04:21.222Z,0.80
2024-03-28T07:06:57.608Z,1.30
2024-03-28T07:09:32.197Z,0.60
2024-03-28T07:12:09.347Z,1.10
2024-03-28T07:14:47.063Z,0.90
2024-03-28T07:17:28.909Z,0.40
2024-03-28T07:20:02.157Z,0.70
2024-03-28T07:22:37.798Z,0.60
2024-03-28T07:25:32.975Z,0.80
2024-03-28T07:28:08.921Z,0.60
2024-03-28T07:30:43.020Z,1.70
2024-03-28T07:33:18.180Z,1.50
2024-03-28T07:35:58.256Z,1.40
2024-03-28T07:38:31.366Z,1.60
2024-03-28T07:41:10.259Z,0.80
2024-03-28T07:43:47.020Z,1.90
2024-03-28T07:46:22.145Z,1.10
2024-03-28T07:48:57.643Z,1.30
2024-03-28T07:51:35.307Z,1.10
2024-03-28T07:54:09.428Z,1.10
2024-03-28T07:56:50.734Z,1.60
2024-03-28T07:59:28.294Z,1.70
2024-03-28T08:02:00.806Z,1.00
2024-03-28T08:04:36.551Z,1.50
2024-03-28T08:07:12.001Z,1.40
2024-03-28T08:09:49.051Z,1.30
2024-03-28T08:12:27.097Z,1.70
2024-03-28T08:15:16.781Z,1.00
2024-03-28T08:17:57.840Z,1.10
2024-03-28T08:20:30.944Z,1.90
2024-03-28T08:23:03.299Z,1.30
2024-03-28T08:25:39.653Z,1.30
2024-03-28T08:28:11.890Z,1.60
2024-03-28T08:30:44.383Z,1.60
2024-03-28T08:33:16.181Z,1.90
2024-03-28T08:35:48.084Z,1.50
2024-03-28T08:38:19.990Z,1.80
2024-03-28T08:40:52.316Z,2.20
2024-03-28T08:43:24.313Z,2.40
2024-03-28T08:45:56.256Z,2.00
2024-03-28T08:48:28.312Z,2.00
2024-03-28T08:51:00.487Z,1.50
2024-03-28T08:53:32.190Z,1.80
2024-03-28T08:56:04.342Z,1.40
2024-03-28T08:58:36.323Z,2.40
2024-03-28T09:01:08.848Z,1.90
2024-03-28T09:03:40.773Z,3.10
2024-03-28T09:06:12.764Z,2.30
2024-03-28T09:08:44.726Z,2.00
2024-03-28T09:11:17.419Z,2.60
2024-03-28T09:13:49.023Z,1.80
2024-03-28T09:16:21.865Z,3.00
2024-03-28T09:18:53.585Z,2.70
2024-03-28T09:21:25.321Z,3.00
2024-03-28T09:23:57.044Z,3.40
2024-03-28T09:26:29.444Z,2.70
2024-03-28T09:29:01.164Z,2.80
2024-03-28T09:31:33.811Z,3.30
2024-03-28T09:34:07.319Z,2.80
2024-03-28T09:36:39.369Z,3.50
2024-03-28T09:39:16.190Z,3.10
2024-03-28T09:41:50.404Z,3.70
2024-03-28T09:44:24.289Z,3.50
2024-03-28T09:46:59.532Z,3.70
2024-03-28T09:49:31.739Z,3.50
2024-03-28T09:52:05.076Z,3.30
2024-03-28T09:54:42.702Z,4.10
2024-03-28T09:57:14.669Z,3.80
2024-03-28T09:59:46.319Z,4.20
2024-03-28T10:02:40.976Z,4.20
2024-03-28T10:05:13.860Z,4.90
2024-03-28T10:07:45.826Z,5.40
2024-03-28T10:10:18.384Z,4.20
2024-03-28T10:12:56.934Z,4.20
2024-03-28T10:15:30.239Z,5.80
2024-03-28T10:18:03.623Z,4.00
2024-03-28T10:20:36.575Z,4.40
2024-03-28T10:23:13.219Z,4.20
2024-03-28T10:25:47.699Z,3.50
2024-03-28T10:28:23.963Z,5.40
2024-03-28T10:30:55.983Z,5.00
2024-03-28T10:33:27.905Z,3.90
2024-03-28T10:36:00.950Z,4.90
2024-03-28T10:38:33.545Z,4.40
2024-03-28T10:41:06.903Z,4.80
2024-03-28T10:43:38.758Z,5.90
2024-03-28T10:46:16.808Z,4.00
2024-03-28T10:48:50.048Z,5.50
2024-03-28T10:51:32.098Z,5.20
2024-03-28T10:54:15.828Z,5.10
2024-03-28T10:56:52.512Z,4.10
2024-03-28T10:59:29.312Z,5.40
2024-03-28T11:02:05.124Z,6.20
2024-03-28T11:07:51.721Z,3.80
2024-03-28T11:10:24.095Z,6.40
2024-03-28T11:12:58.840Z,5.30
2024-03-28T11:15:34.712Z,5.60
2024-03-28T11:18:09.436Z,4.10
2024-03-28T11:20:52.283Z,4.80
2024-03-28T11:23:24.436Z,4.00
2024-03-28T11:26:06.479Z,4.70
2024-03-28T11:28:41.050Z,4.60
2024-03-28T11:31:15.506Z,4.50
2024-03-28T11:33:47.927Z,4.00
2024-03-28T11:36:21.309Z,4.50
2024-03-28T11:42:35.926Z,5.40
2024-03-28T11:45:18.648Z,4.40
2024-03-28T11:48:00.319Z,4.50
2024-03-28T11:50:33.090Z,5.00
2024-03-28T11:53:05.326Z,4.10
2024-03-28T11:55:42.206Z,5.00
2024-03-28T11:58:18.547Z,4.20
2024-03-28T12:00:51.044Z,6.20
2024-03-28T12:03:23.018Z,4.80
2024-03-28T12:05:57.524Z,4.60
2024-03-28T12:08:38.028Z,3.80
2024-03-28T12:11:13.598Z,4.60
2024-03-28T12:13:50.303Z,5.40
2024-03-28T12:16:22.493Z,4.00
2024-03-28T12:18:54.411Z,4.50
2024-03-28T12:21:27.299Z,5.00
2024-03-28T12:23:59.726Z,5.50
2024-03-28T12:26:32.857Z,5.50
2024-03-28T12:29:04.823Z,5.70
2024-03-28T12:31:36.873Z,4.70
2024-03-28T12:34:16.389Z,4.70
2024-03-28T12:36:48.423Z,5.30
2024-03-28T12:39:25.660Z,4.90
2024-03-28T12:42:00.506Z,5.10
2024-03-28T12:44:33.000Z,5.40
2024-03-28T12:47:05.337Z,4.30
2024-03-28T12:49:37.656Z,7.00
2024-03-28T12:52:10.361Z,4.80
2024-03-28T12:54:42.437Z,4.70
2024-03-28T12:57:23.519Z,5.10
2024-03-28T13:00:00.727Z,4.30
2024-03-28T13:02:34.928Z,5.60
2024-03-28T13:05:10.198Z,4.40
2024-03-28T13:07:49.111Z,4.80
2024-03-28T13:10:23.516Z,3.90
2024-03-28T13:12:58.838Z,5.10
2024-03-28T13:15:33.025Z,4.60
2024-03-28T13:21:26.731Z,3.90
2024-03-28T13:24:09.524Z,4.20
2024-03-28T13:27:17.093Z,5.30
2024-03-28T13:29:45.752Z,4.80
2024-03-28T13:32:22.720Z,3.70
2024-03-28T13:34:58.027Z,4.90
2024-03-28T13:37:32.801Z,6.00
2024-03-28T13:40:14.737Z,4.00
2024-03-28T13:42:53.523Z,5.20
2024-03-28T13:45:26.792Z,5.60
2024-03-28T13:48:04.303Z,4.40
2024-03-28T13:50:44.546Z,4.50
2024-03-28T13:53:44.276Z,4.70
2024-03-28T13:56:18.801Z,4.70
2024-03-28T13:58:55.317Z,3.50
2024-03-28T14:01:39.393Z,3.90
2024-03-28T14:18:44.593Z,3.80
2024-03-28T14:21:16.985Z,4.50
2024-03-28T14:23:49.715Z,4.40
2024-03-28T14:26:21.705Z,4.10
2024-03-28T14:28:57.160Z,3.00
2024-03-28T14:31:36.858Z,4.10
2024-03-28T14:34:17.167Z,3.90
2024-03-28T14:36:51.340Z,4.20
2024-03-28T14:39:34.018Z,4.70
2024-03-28T14:42:07.381Z,4.80
2024-03-28T14:44:41.304Z,4.30
2024-03-28T14:50:04.339Z,4.10
2024-03-28T14:52:47.260Z,4.70
2024-03-28T14:55:32.891Z,4.00
2024-03-28T14:58:07.169Z,3.90
2024-03-28T15:00:44.445Z,4.20
2024-03-28T15:03:19.330Z,3.80
2024-03-28T15:06:07.589Z,4.60
2024-03-28T15:08:44.248Z,3.80
2024-03-28T15:11:21.926Z,4.10
2024-03-28T15:14:01.737Z,3.70
2024-03-28T15:16:36.210Z,4.30
2024-03-28T15:19:09.880Z,4.50
2024-03-28T15:21:47.728Z,6.10
2024-03-28T15:24:26.010Z,3.80
2024-03-28T15:27:08.556Z,5.40
2024-03-28T15:29:41.797Z,4.80
2024-03-28T15:32:16.737Z,4.50
2024-03-28T15:34:54.267Z,4.40
2024-03-28T15:37:28.619Z,4.00
2024-03-28T15:40:04.488Z,4.10
2024-03-28T15:42:36.910Z,4.90
2024-03-28T15:45:15.611Z,4.30
2024-03-28T15:47:48.713Z,4.70
2024-03-28T15:50:23.056Z,5.20
2024-03-28T15:52:58.971Z,4.60
2024-03-28T15:55:34.635Z,4.50
2024-03-28T15:58:16.177Z,4.40
2024-03-28T16:00:50.456Z,4.60
2024-03-28T16:03:49.756Z,3.90
2024-03-28T16:06:27.901Z,5.00
2024-03-28T16:09:00.863Z,4.30
2024-03-28T16:11:43.649Z,4.20
2024-03-28T16:14:15.960Z,6.50
2024-03-28T16:16:48.600Z,5.90
2024-03-28T16:19:22.849Z,5.10
2024-03-28T16:21:56.397Z,5.30
2024-03-28T16:24:32.862Z,4.60
2024-03-28T16:27:09.407Z,5.50
2024-03-28T16:29:44.708Z,5.20
2024-03-28T16:32:17.818Z,5.40
2024-03-28T16:34:52.872Z,6.30
2024-03-28T16:37:31.702Z,5.40
2024-03-28T16:40:13.142Z,5.70
2024-03-28T16:42:49.602Z,7.60
2024-03-28T16:45:25.251Z,6.20
2024-03-28T16:48:00.193Z,5.50
2024-03-28T16:50:42.231Z,5.40
2024-03-28T16:53:20.807Z,5.50
2024-03-28T16:55:59.929Z,4.40
2024-03-28T16:58:36.638Z,4.10
2024-03-28T17:01:11.838Z,4.40
2024-03-28T17:03:49.190Z,4.50
2024-03-28T17:06:31.624Z,5.60
2024-03-28T17:09:10.276Z,5.00
2024-03-28T17:11:48.524Z,5.30
2024-03-28T17:14:24.366Z,4.70
2024-03-28T17:16:58.200Z,4.60
2024-03-28T17:19:34.359Z,6.60
2024-03-28T17:22:10.573Z,5.40
2024-03-28T17:24:46.338Z,5.00
2024-03-28T17:27:23.531Z,5.20
2024-03-28T17:29:57.098Z,4.70
2024-03-28T17:32:32.315Z,5.50
2024-03-28T17:35:08.808Z,4.10
2024-03-28T17:37:41.439Z,5.20
2024-03-28T17:40:20.066Z,5.00
2024-03-28T17:42:55.638Z,4.90
2024-03-28T17:45:27.376Z,4.50
2024-03-28T17:48:03.735Z,4.60
2024-03-28T17:50:38.475Z,4.40
2024-03-28T17:53:16.298Z,3.30
2024-03-28T17:55:49.265Z,4.30
2024-03-28T17:58:21.490Z,4.50
2024-03-28T18:01:10.333Z,4.30
2024-03-28T18:03:44.611Z,4.40
2024-03-28T18:06:19.596Z,4.20
2024-03-28T18:11:31.541Z,4.60
2024-03-28T18:14:07.302Z,3.50
2024-03-28T18:16:40.232Z,5.40
2024-03-28T18:19:14.929Z,4.10
2024-03-28T18:21:52.912Z,4.60
2024-03-28T18:24:30.229Z,5.20
2024-03-28T18:27:03.129Z,4.50
2024-03-28T18:29:54.552Z,3.00
2024-03-28T18:32:27.969Z,4.40
2024-03-28T18:35:02.102Z,4.90
2024-03-28T18:37:35.946Z,4.10
2024-03-28T18:40:16.578Z,3.80
2024-03-28T18:42:52.990Z,5.20
2024-03-28T18:45:26.675Z,3.40
2024-03-28T18:48:02.590Z,4.20
2024-03-28T18:53:07.309Z,4.20
2024-03-28T18:55:38.885Z,4.60
2024-03-28T18:58:10.600Z,4.10
2024-03-28T19:00:43.471Z,4.50
2024-03-28T19:03:15.764Z,4.90
2024-03-28T19:05:48.384Z,3.70
2024-03-28T19:08:20.486Z,4.80
2024-03-28T19:10:53.792Z,4.50
2024-03-28T19:13:26.228Z,4.20
2024-03-28T19:16:01.316Z,4.50
2024-03-28T19:18:33.636Z,5.30
2024-03-28T19:21:05.726Z,2.90
2024-03-28T19:23:37.790Z,5.10
2024-03-28T19:26:14.331Z,4.20
2024-03-28T19:28:48.734Z,4.50
2024-03-28T19:34:54.230Z,3.60
2024-03-28T19:37:26.271Z,3.90
2024-03-28T19:39:58.768Z,5.70
2024-03-28T19:42:34.229Z,4.30
2024-03-28T19:45:06.581Z,5.30
2024-03-28T19:47:38.506Z,4.50
2024-03-28T19:50:12.776Z,4.40
2024-03-28T19:52:45.566Z,4.80
2024-03-28T19:55:18.135Z,3.90
2024-03-28T19:57:50.001Z,3.80
2024-03-28T20:00:23.314Z,5.10
2024-03-28T20:02:55.438Z,3.70
2024-03-28T20:05:27.571Z,3.70
2024-03-28T20:08:04.703Z,5.60
2024-03-28T20:10:36.783Z,6.10
2024-03-28T20:13:08.796Z,5.20
2024-03-28T20:15:40.802Z,4.30
2024-03-28T20:18:12.461Z,4.30
2024-03-28T20:20:44.287Z,4.90
2024-03-28T20:23:16.408Z,4.60
2024-03-28T20:25:48.586Z,3.80
2024-03-28T20:28:20.569Z,5.90
2024-03-28T20:30:57.884Z,5.30
2024-03-28T20:33:33.459Z,4.30
2024-03-28T20:36:07.278Z,4.40
2024-03-28T20:38:39.564Z,3.60
2024-03-28T20:41:11.642Z,5.30
2024-03-28T20:43:47.659Z,4.90
2024-03-28T20:48:50.909Z,5.20
2024-03-28T20:51:23.177Z,4.70
2024-03-28T20:53:55.574Z,4.40
2024-03-28T20:56:30.857Z,3.80
2024-03-28T20:59:04.081Z,4.50
2024-03-28T21:01:36.499Z,5.00
2024-03-28T21:04:10.477Z,5.40
2024-03-28T21:07:07.285Z,6.40
2024-03-28T21:09:56.065Z,4.10
2024-03-28T21:12:29.390Z,5.20
2024-03-28T21:15:02.176Z,5.20
2024-03-28T21:17:36.268Z,5.10
2024-03-28T21:20:10.797Z,5.40
2024-03-28T21:22:53.688Z,4.50
2024-03-28T21:25:27.720Z,3.90
2024-03-28T21:27:59.718Z,5.30
2024-03-28T21:30:33.904Z,4.80
2024-03-28T21:33:08.716Z,4.40
2024-03-28T21:35:46.166Z,5.60
2024-03-28T21:38:20.370Z,5.20
2024-03-28T21:40:57.020Z,5.40
2024-03-28T21:43:30.199Z,4.50
2024-03-28T21:46:04.114Z,4.50
2024-03-28T21:48:38.560Z,4.00
2024-03-28T21:51:13.475Z,5.00
2024-03-28T21:53:46.758Z,4.00
2024-03-28T21:56:20.775Z,5.60
2024-03-28T21:58:53.746Z,5.80
2024-03-28T22:01:25.757Z,4.90
2024-03-28T22:03:57.656Z,4.90
2024-03-28T22:06:29.721Z,4.40
2024-03-28T22:09:01.978Z,5.40
2024-03-28T22:11:34.181Z,4.90
2024-03-28T22:14:08.354Z,4.70
2024-03-28T22:16:43.628Z,5.30
2024-03-28T22:19:18.711Z,5.80
2024-03-28T22:21:51.035Z,4.90
2024-03-28T22:24:23.010Z,4.50
2024-03-28T22:26:54.973Z,7.10
2024-03-28T22:29:28.762Z,5.10
2024-03-28T22:32:01.409Z,5.50
2024-03-28T22:34:36.423Z,5.20
2024-03-28T22:37:10.435Z,4.60
2024-03-28T22:39:42.425Z,5.30
2024-03-28T22:42:14.816Z,7.40
2024-03-28T22:44:53.196Z,5.40
2024-03-28T22:47:25.106Z,5.00
2024-03-28T22:49:57.737Z,5.20
2024-03-28T22:52:30.255Z,5.00
2024-03-28T22:55:02.584Z,5.20
2024-03-28T22:57:37.493Z,4.60
2024-03-28T23:00:12.281Z,6.40
2024-03-28T23:05:15.565Z,4.90
2024-03-28T23:07:48.554Z,4.50
2024-03-28T23:10:21.183Z,4.80
2024-03-28T23:12:53.116Z,5.60
2024-03-28T23:15:24.817Z,6.10
2024-03-28T23:17:56.307Z,4.80
2024-03-28T23:20:29.448Z,4.50
2024-03-28T23:23:01.407Z,5.60
2024-03-28T23:25:33.308Z,4.80
2024-03-28T23:28:05.560Z,5.40
2024-03-28T23:30:38.637Z,4.70
2024-03-28T23:33:11.195Z,4.90
2024-03-28T23:35:43.187Z,5.80
2024-03-28T23:38:15.718Z,6.20
2024-03-28T23:40:50.928Z,6.00
2024-03-28T23:43:23.539Z,5.40
2024-03-28T23:45:56.440Z,5.00
2024-03-28T23:48:28.182Z,6.00
2024-03-28T23:51:00.366Z,5.10
2024-03-28T23:53:36.495Z,6.00
2024-03-28T23:56:09.288Z,4.70
2024-03-28T23:58:42.813Z,5.20
